sensor_id;sensor_type;location;lat;lon;timestamp;temperature;humidity
21149;DHT22;10732;51.472;6.466;2023-04-01T00:01:11;9.40;99.90
21149;DHT22;10732;51.472;6.466;2023-04-01T00:03:39;9.40;99.90
21149;DHT22;10732;51.472;6.466;2023-04-01T00:06:05;9.40;99.90
21149;DHT22;10732;51.472;6.466;2023-04-01T00:08:31;9.40;99.90
21149;DHT22;10732;51.472;6.466;2023-04-01T00:10:57;9.40;99.90
21149;DHT22;10732;51.472;6.466;2023-04-01T00:13:24;9.40;99.90
21149;DHT22;10732;51.472;6.466;2023-04-01T00:15:51;9.40;99.90
21149;DHT22;10732;51.472;6.466;2023-04-01T00:18:16;9.40;99.90
21149;DHT22;10732;51.472;6.466;2023-04-01T00:20:46;9.40;99.90
21149;DHT22;10732;51.472;6.466;2023-04-01T00:23:13;9.40;99.90
21149;DHT22;10732;51.472;6.466;2023-04-01T00:25:39;9.40;99.90
21149;DHT22;10732;51.472;6.466;2023-04-01T00:28:04;9.40;99.90
21149;DHT22;10732;51.472;6.466;2023-04-01T00:30:30;9.50;99.90
21149;DHT22;10732;51.472;6.466;2023-04-01T00:32:55;9.40;99.90
21149;DHT22;10732;51.472;6.466;2023-04-01T00:35:21;9.40;99.90
21149;DHT22;10732;51.472;6.466;2023-04-01T00:37:47;9.40;99.90
21149;DHT22;10732;51.472;6.466;2023-04-01T00:40:33;9.40;99.90
21149;DHT22;10732;51.472;6.466;2023-04-01T00:42:59;9.40;99.90
21149;DHT22;10732;51.472;6.466;2023-04-01T00:45:29;9.40;99.90
21149;DHT22;10732;51.472;6.466;2023-04-01T00:47:56;9.40;99.90
21149;DHT22;10732;51.472;6.466;2023-04-01T00:50:25;9.40;99.90
21149;DHT22;10732;51.472;6.466;2023-04-01T00:52:52;9.40;99.90
21149;DHT22;10732;51.472;6.466;2023-04-01T00:55:19;9.40;99.90
21149;DHT22;10732;51.472;6.466;2023-04-01T00:57:48;9.30;99.90
21149;DHT22;10732;51.472;6.466;2023-04-01T01:00:16;9.30;99.90
21149;DHT22;10732;51.472;6.466;2023-04-01T01:02:45;9.30;99.90
21149;DHT22;10732;51.472;6.466;2023-04-01T01:05:15;9.30;99.90
21149;DHT22;10732;51.472;6.466;2023-04-01T01:08:05;9.30;99.90
21149;DHT22;10732;51.472;6.466;2023-04-01T01:10:35;9.40;99.90
21149;DHT22;10732;51.472;6.466;2023-04-01T01:13:27;9.30;99.90
21149;DHT22;10732;51.472;6.466;2023-04-01T01:16:02;9.40;99.90
21149;DHT22;10732;51.472;6.466;2023-04-01T01:24:22;9.30;99.90
21149;DHT22;10732;51.472;6.466;2023-04-01T01:27:06;9.30;99.90
21149;DHT22;10732;51.472;6.466;2023-04-01T01:35:28;9.40;99.90
21149;DHT22;10732;51.472;6.466;2023-04-01T01:38:15;9.30;99.90
21149;DHT22;10732;51.472;6.466;2023-04-01T01:40:44;9.40;99.90
21149;DHT22;10732;51.472;6.466;2023-04-01T01:43:14;9.40;99.90
21149;DHT22;10732;51.472;6.466;2023-04-01T01:45:45;9.40;99.90
21149;DHT22;10732;51.472;6.466;2023-04-01T01:48:12;9.40;99.90
21149;DHT22;10732;51.472;6.466;2023-04-01T01:50:38;9.40;99.90
21149;DHT22;10732;51.472;6.466;2023-04-01T01:53:09;9.40;99.90
21149;DHT22;10732;51.472;6.466;2023-04-01T01:55:39;9.40;99.90
21149;DHT22;10732;51.472;6.466;2023-04-01T01:58:22;9.40;99.90
21149;DHT22;10732;51.472;6.466;2023-04-01T02:00:57;9.40;99.90
21149;DHT22;10732;51.472;6.466;2023-04-01T02:03:25;9.40;99.90
21149;DHT22;10732;51.472;6.466;2023-04-01T02:05:55;9.30;99.90
21149;DHT22;10732;51.472;6.466;2023-04-01T02:08:26;9.30;99.90
21149;DHT22;10732;51.472;6.466;2023-04-01T02:11:00;9.30;99.90
21149;DHT22;10732;51.472;6.466;2023-04-01T02:13:37;9.30;99.90
21149;DHT22;10732;51.472;6.466;2023-04-01T02:16:10;9.30;99.90
21149;DHT22;10732;51.472;6.466;2023-04-01T02:18:38;9.30;99.90
21149;DHT22;10732;51.472;6.466;2023-04-01T02:21:05;9.20;99.90
21149;DHT22;10732;51.472;6.466;2023-04-01T02:23:35;9.20;99.90
21149;DHT22;10732;51.472;6.466;2023-04-01T02:26:01;9.20;99.90
21149;DHT22;10732;51.472;6.466;2023-04-01T02:28:28;9.20;99.90
21149;DHT22;10732;51.472;6.466;2023-04-01T02:30:55;9.20;99.90
21149;DHT22;10732;51.472;6.466;2023-04-01T02:33:23;9.20;99.90
21149;DHT22;10732;51.472;6.466;2023-04-01T02:35:48;9.20;99.90
21149;DHT22;10732;51.472;6.466;2023-04-01T02:38:14;9.20;99.90
21149;DHT22;10732;51.472;6.466;2023-04-01T02:40:56;9.20;99.90
21149;DHT22;10732;51.472;6.466;2023-04-01T02:43:22;9.20;99.90
21149;DHT22;10732;51.472;6.466;2023-04-01T02:45:47;9.30;99.90
21149;DHT22;10732;51.472;6.466;2023-04-01T02:48:13;9.30;99.90
21149;DHT22;10732;51.472;6.466;2023-04-01T02:50:39;9.20;99.90
21149;DHT22;10732;51.472;6.466;2023-04-01T02:53:05;9.30;99.90
21149;DHT22;10732;51.472;6.466;2023-04-01T02:55:32;9.30;99.90
21149;DHT22;10732;51.472;6.466;2023-04-01T02:57:57;9.30;99.90
21149;DHT22;10732;51.472;6.466;2023-04-01T03:00:23;9.30;99.90
21149;DHT22;10732;51.472;6.466;2023-04-01T03:02:49;9.20;99.90
21149;DHT22;10732;51.472;6.466;2023-04-01T03:05:14;9.30;99.90
21149;DHT22;10732;51.472;6.466;2023-04-01T03:07:40;9.30;99.90
21149;DHT22;10732;51.472;6.466;2023-04-01T03:10:06;9.30;99.90
21149;DHT22;10732;51.472;6.466;2023-04-01T03:12:32;9.30;99.90
21149;DHT22;10732;51.472;6.466;2023-04-01T03:14:58;9.30;99.90
21149;DHT22;10732;51.472;6.466;2023-04-01T03:17:23;9.20;99.90
21149;DHT22;10732;51.472;6.466;2023-04-01T03:19:49;9.20;99.90
21149;DHT22;10732;51.472;6.466;2023-04-01T03:22:14;9.20;99.90
21149;DHT22;10732;51.472;6.466;2023-04-01T03:24:40;9.20;99.90
21149;DHT22;10732;51.472;6.466;2023-04-01T03:27:06;9.30;99.90
21149;DHT22;10732;51.472;6.466;2023-04-01T03:29:31;9.20;99.90
21149;DHT22;10732;51.472;6.466;2023-04-01T03:31:57;9.30;99.90
21149;DHT22;10732;51.472;6.466;2023-04-01T03:34:25;9.30;99.90
21149;DHT22;10732;51.472;6.466;2023-04-01T03:36:51;9.30;99.90
21149;DHT22;10732;51.472;6.466;2023-04-01T03:39:17;9.30;99.90
21149;DHT22;10732;51.472;6.466;2023-04-01T03:41:44;9.30;99.90
21149;DHT22;10732;51.472;6.466;2023-04-01T03:44:10;9.30;99.90
21149;DHT22;10732;51.472;6.466;2023-04-01T03:46:36;9.30;99.90
21149;DHT22;10732;51.472;6.466;2023-04-01T03:49:02;9.30;99.90
21149;DHT22;10732;51.472;6.466;2023-04-01T03:51:27;9.30;99.90
21149;DHT22;10732;51.472;6.466;2023-04-01T03:53:53;9.30;99.90
21149;DHT22;10732;51.472;6.466;2023-04-01T03:56:18;9.30;99.90
21149;DHT22;10732;51.472;6.466;2023-04-01T03:58:44;9.30;99.90
21149;DHT22;10732;51.472;6.466;2023-04-01T04:01:14;9.30;99.90
21149;DHT22;10732;51.472;6.466;2023-04-01T04:03:40;9.30;99.90
21149;DHT22;10732;51.472;6.466;2023-04-01T04:06:07;9.30;99.90
21149;DHT22;10732;51.472;6.466;2023-04-01T04:08:35;9.30;99.90
21149;DHT22;10732;51.472;6.466;2023-04-01T04:11:00;9.30;99.90
21149;DHT22;10732;51.472;6.466;2023-04-01T04:13:26;9.30;99.90
21149;DHT22;10732;51.472;6.466;2023-04-01T04:15:51;9.30;99.90
21149;DHT22;10732;51.472;6.466;2023-04-01T04:18:17;9.30;99.90
21149;DHT22;10732;51.472;6.466;2023-04-01T04:20:45;9.30;99.90
21149;DHT22;10732;51.472;6.466;2023-04-01T04:23:16;9.30;99.90
21149;DHT22;10732;51.472;6.466;2023-04-01T04:26:00;9.30;99.90
21149;DHT22;10732;51.472;6.466;2023-04-01T04:28:27;9.20;99.90
21149;DHT22;10732;51.472;6.466;2023-04-01T04:30:53;9.20;99.90
21149;DHT22;10732;51.472;6.466;2023-04-01T04:33:19;9.20;99.90
21149;DHT22;10732;51.472;6.466;2023-04-01T04:35:45;9.30;99.90
21149;DHT22;10732;51.472;6.466;2023-04-01T04:38:11;9.20;99.90
21149;DHT22;10732;51.472;6.466;2023-04-01T04:40:37;9.20;99.90
21149;DHT22;10732;51.472;6.466;2023-04-01T04:43:03;9.20;99.90
21149;DHT22;10732;51.472;6.466;2023-04-01T04:45:29;9.20;99.90
21149;DHT22;10732;51.472;6.466;2023-04-01T04:47:55;9.20;99.90
21149;DHT22;10732;51.472;6.466;2023-04-01T04:50:20;9.20;99.90
21149;DHT22;10732;51.472;6.466;2023-04-01T04:52:46;9.20;99.90
21149;DHT22;10732;51.472;6.466;2023-04-01T04:55:11;9.20;99.90
21149;DHT22;10732;51.472;6.466;2023-04-01T04:57:37;9.20;99.90
21149;DHT22;10732;51.472;6.466;2023-04-01T05:00:03;9.20;99.90
21149;DHT22;10732;51.472;6.466;2023-04-01T05:02:29;9.20;99.90
21149;DHT22;10732;51.472;6.466;2023-04-01T05:04:55;9.20;99.90
21149;DHT22;10732;51.472;6.466;2023-04-01T05:07:20;9.20;99.90
21149;DHT22;10732;51.472;6.466;2023-04-01T05:09:46;9.20;99.90
21149;DHT22;10732;51.472;6.466;2023-04-01T05:12:12;9.30;99.90
21149;DHT22;10732;51.472;6.466;2023-04-01T05:14:38;9.20;99.90
21149;DHT22;10732;51.472;6.466;2023-04-01T05:17:04;9.20;99.90
21149;DHT22;10732;51.472;6.466;2023-04-01T05:19:29;9.20;99.90
21149;DHT22;10732;51.472;6.466;2023-04-01T05:21:55;9.20;99.90
21149;DHT22;10732;51.472;6.466;2023-04-01T05:24:20;9.20;99.90
21149;DHT22;10732;51.472;6.466;2023-04-01T05:26:46;9.20;99.90
21149;DHT22;10732;51.472;6.466;2023-04-01T05:29:11;9.20;99.90
21149;DHT22;10732;51.472;6.466;2023-04-01T05:31:37;9.20;99.90
21149;DHT22;10732;51.472;6.466;2023-04-01T05:34:02;9.30;99.90
21149;DHT22;10732;51.472;6.466;2023-04-01T05:36:28;9.20;99.90
21149;DHT22;10732;51.472;6.466;2023-04-01T05:38:57;9.20;99.90
21149;DHT22;10732;51.472;6.466;2023-04-01T05:41:22;9.20;99.90
21149;DHT22;10732;51.472;6.466;2023-04-01T05:43:48;9.20;99.90
21149;DHT22;10732;51.472;6.466;2023-04-01T05:46:13;9.20;99.90
21149;DHT22;10732;51.472;6.466;2023-04-01T05:48:39;9.20;99.90
21149;DHT22;10732;51.472;6.466;2023-04-01T05:51:04;9.20;99.90
21149;DHT22;10732;51.472;6.466;2023-04-01T05:53:30;9.10;99.90
21149;DHT22;10732;51.472;6.466;2023-04-01T05:55:56;9.10;99.90
21149;DHT22;10732;51.472;6.466;2023-04-01T05:58:21;9.10;99.90
21149;DHT22;10732;51.472;6.466;2023-04-01T06:00:47;9.10;99.90
21149;DHT22;10732;51.472;6.466;2023-04-01T06:03:13;9.10;99.90
21149;DHT22;10732;51.472;6.466;2023-04-01T06:05:41;9.10;99.90
21149;DHT22;10732;51.472;6.466;2023-04-01T06:08:13;9.10;99.90
21149;DHT22;10732;51.472;6.466;2023-04-01T06:16:55;9.20;99.90
21149;DHT22;10732;51.472;6.466;2023-04-01T06:19:36;9.20;99.90
21149;DHT22;10732;51.472;6.466;2023-04-01T06:33:30;9.20;99.90
21149;DHT22;10732;51.472;6.466;2023-04-01T06:36:25;9.30;99.90
21149;DHT22;10732;51.472;6.466;2023-04-01T06:44:16;9.30;99.90
21149;DHT22;10732;51.472;6.466;2023-04-01T06:46:48;9.30;99.90
21149;DHT22;10732;51.472;6.466;2023-04-01T06:55:26;9.30;99.90
21149;DHT22;10732;51.472;6.466;2023-04-01T06:57:55;9.30;99.90
21149;DHT22;10732;51.472;6.466;2023-04-01T07:00:39;9.30;99.90
21149;DHT22;10732;51.472;6.466;2023-04-01T07:03:31;9.30;99.90
21149;DHT22;10732;51.472;6.466;2023-04-01T07:06:02;9.30;99.90
21149;DHT22;10732;51.472;6.466;2023-04-01T07:08:29;9.30;99.90
21149;DHT22;10732;51.472;6.466;2023-04-01T07:11:09;9.30;99.90
21149;DHT22;10732;51.472;6.466;2023-04-01T07:13:45;9.40;99.90
21149;DHT22;10732;51.472;6.466;2023-04-01T07:16:24;9.50;99.90
21149;DHT22;10732;51.472;6.466;2023-04-01T07:18:56;9.60;99.90
21149;DHT22;10732;51.472;6.466;2023-04-01T07:21:26;9.60;99.90
21149;DHT22;10732;51.472;6.466;2023-04-01T07:23:57;9.60;99.90
21149;DHT22;10732;51.472;6.466;2023-04-01T07:26:25;9.60;99.90
21149;DHT22;10732;51.472;6.466;2023-04-01T07:28:52;9.60;99.90
21149;DHT22;10732;51.472;6.466;2023-04-01T07:34:28;9.60;99.90
21149;DHT22;10732;51.472;6.466;2023-04-01T07:37:11;9.60;99.90
21149;DHT22;10732;51.472;6.466;2023-04-01T07:45:23;9.70;99.90
21149;DHT22;10732;51.472;6.466;2023-04-01T07:50:55;9.80;99.90
21149;DHT22;10732;51.472;6.466;2023-04-01T07:53:33;9.80;99.90
21149;DHT22;10732;51.472;6.466;2023-04-01T08:02:08;9.80;99.90
21149;DHT22;10732;51.472;6.466;2023-04-01T08:04:48;9.80;99.90
21149;DHT22;10732;51.472;6.466;2023-04-01T08:07:23;9.70;99.90
21149;DHT22;10732;51.472;6.466;2023-04-01T08:10:17;9.80;99.90
21149;DHT22;10732;51.472;6.466;2023-04-01T08:21:44;9.90;99.90
21149;DHT22;10732;51.472;6.466;2023-04-01T08:24:27;10.00;99.90
21149;DHT22;10732;51.472;6.466;2023-04-01T08:26:57;10.10;99.90
21149;DHT22;10732;51.472;6.466;2023-04-01T08:29:41;10.10;99.90
21149;DHT22;10732;51.472;6.466;2023-04-01T08:32:12;10.10;99.90
21149;DHT22;10732;51.472;6.466;2023-04-01T08:34:45;10.10;99.90
21149;DHT22;10732;51.472;6.466;2023-04-01T08:37:21;10.00;99.90
21149;DHT22;10732;51.472;6.466;2023-04-01T08:40:05;10.10;99.90
21149;DHT22;10732;51.472;6.466;2023-04-01T08:43:27;10.00;99.90
21149;DHT22;10732;51.472;6.466;2023-04-01T08:46:05;10.10;99.90
21149;DHT22;10732;51.472;6.466;2023-04-01T09:05:02;10.80;99.90
21149;DHT22;10732;51.472;6.466;2023-04-01T09:07:41;10.80;99.90
21149;DHT22;10732;51.472;6.466;2023-04-01T09:18:49;10.60;99.90
21149;DHT22;10732;51.472;6.466;2023-04-01T09:21:43;10.60;99.90
21149;DHT22;10732;51.472;6.466;2023-04-01T09:27:00;10.60;99.90
21149;DHT22;10732;51.472;6.466;2023-04-01T09:38:21;10.40;99.90
21149;DHT22;10732;51.472;6.466;2023-04-01T09:40:54;10.40;99.90
21149;DHT22;10732;51.472;6.466;2023-04-01T09:49:12;10.40;99.90
21149;DHT22;10732;51.472;6.466;2023-04-01T09:51:48;10.50;99.90
21149;DHT22;10732;51.472;6.466;2023-04-01T09:54:49;10.50;99.90
21149;DHT22;10732;51.472;6.466;2023-04-01T09:57:45;10.50;99.90
21149;DHT22;10732;51.472;6.466;2023-04-01T10:12:20;10.50;99.90
21149;DHT22;10732;51.472;6.466;2023-04-01T10:15:06;10.40;99.90
21149;DHT22;10732;51.472;6.466;2023-04-01T10:18:06;10.40;99.90
21149;DHT22;10732;51.472;6.466;2023-04-01T10:21:04;10.30;99.90
21149;DHT22;10732;51.472;6.466;2023-04-01T10:24:00;10.30;99.90
21149;DHT22;10732;51.472;6.466;2023-04-01T10:26:52;10.40;99.90
21149;DHT22;10732;51.472;6.466;2023-04-01T10:37:59;10.60;99.90
21149;DHT22;10732;51.472;6.466;2023-04-01T10:54:44;10.90;99.90
21149;DHT22;10732;51.472;6.466;2023-04-01T11:00:05;11.00;99.90
21149;DHT22;10732;51.472;6.466;2023-04-01T11:05:55;11.00;99.90
21149;DHT22;10732;51.472;6.466;2023-04-01T11:14:11;11.00;99.90
21149;DHT22;10732;51.472;6.466;2023-04-01T11:25:23;11.10;99.90
21149;DHT22;10732;51.472;6.466;2023-04-01T11:30:33;11.40;99.90
21149;DHT22;10732;51.472;6.466;2023-04-01T11:44:17;11.50;99.90
21149;DHT22;10732;51.472;6.466;2023-04-01T11:47:27;11.50;99.90
21149;DHT22;10732;51.472;6.466;2023-04-01T11:50:14;11.50;99.90
21149;DHT22;10732;51.472;6.466;2023-04-01T11:53:05;11.60;99.90
21149;DHT22;10732;51.472;6.466;2023-04-01T11:56:07;11.50;99.90
21149;DHT22;10732;51.472;6.466;2023-04-01T12:01:56;11.90;99.90
21149;DHT22;10732;51.472;6.466;2023-04-01T12:18:18;11.50;99.90
21149;DHT22;10732;51.472;6.466;2023-04-01T12:21:00;11.50;99.90
21149;DHT22;10732;51.472;6.466;2023-04-01T12:29:28;11.10;99.90
21149;DHT22;10732;51.472;6.466;2023-04-01T12:32:17;11.10;99.90
21149;DHT22;10732;51.472;6.466;2023-04-01T12:35:04;11.10;99.90
21149;DHT22;10732;51.472;6.466;2023-04-01T12:49:41;11.10;99.90
21149;DHT22;10732;51.472;6.466;2023-04-01T12:52:13;11.10;99.90
21149;DHT22;10732;51.472;6.466;2023-04-01T12:55:08;11.20;99.90
21149;DHT22;10732;51.472;6.466;2023-04-01T13:03:54;11.30;99.90
21149;DHT22;10732;51.472;6.466;2023-04-01T13:06:41;11.20;99.90
21149;DHT22;10732;51.472;6.466;2023-04-01T13:22:57;11.10;99.90
21149;DHT22;10732;51.472;6.466;2023-04-01T13:28:25;11.10;99.90
21149;DHT22;10732;51.472;6.466;2023-04-01T13:42:24;11.00;99.90
21149;DHT22;10732;51.472;6.466;2023-04-01T13:51:05;11.00;99.90
21149;DHT22;10732;51.472;6.466;2023-04-01T13:59:02;11.00;99.90
21149;DHT22;10732;51.472;6.466;2023-04-01T14:04:44;11.00;99.90
21149;DHT22;10732;51.472;6.466;2023-04-01T14:10:16;11.10;99.90
21149;DHT22;10732;51.472;6.466;2023-04-01T14:13:16;11.20;99.90
21149;DHT22;10732;51.472;6.466;2023-04-01T14:21:50;11.10;99.90
21149;DHT22;10732;51.472;6.466;2023-04-01T14:41:34;11.20;99.90
21149;DHT22;10732;51.472;6.466;2023-04-01T14:50:08;11.00;99.90
21149;DHT22;10732;51.472;6.466;2023-04-01T14:52:38;11.00;99.90
21149;DHT22;10732;51.472;6.466;2023-04-01T14:58:09;11.10;99.90
21149;DHT22;10732;51.472;6.466;2023-04-01T15:03:32;11.00;99.90
21149;DHT22;10732;51.472;6.466;2023-04-01T15:06:27;11.20;99.90
21149;DHT22;10732;51.472;6.466;2023-04-01T15:09:22;11.30;99.90
21149;DHT22;10732;51.472;6.466;2023-04-01T15:14:42;11.50;99.90
21149;DHT22;10732;51.472;6.466;2023-04-01T15:18:22;11.50;99.90
21149;DHT22;10732;51.472;6.466;2023-04-01T15:20:42;11.50;99.90
21149;DHT22;10732;51.472;6.466;2023-04-01T15:23:19;11.50;99.90
21149;DHT22;10732;51.472;6.466;2023-04-01T15:29:33;11.40;99.90
21149;DHT22;10732;51.472;6.466;2023-04-01T15:40:37;11.20;99.90
21149;DHT22;10732;51.472;6.466;2023-04-01T15:43:35;11.20;99.90
21149;DHT22;10732;51.472;6.466;2023-04-01T15:46:30;11.20;99.90
21149;DHT22;10732;51.472;6.466;2023-04-01T15:52:57;11.10;99.90
21149;DHT22;10732;51.472;6.466;2023-04-01T16:00:49;11.10;99.90
21149;DHT22;10732;51.472;6.466;2023-04-01T16:03:30;11.00;99.90
21149;DHT22;10732;51.472;6.466;2023-04-01T16:09:13;11.00;99.90
21149;DHT22;10732;51.472;6.466;2023-04-01T16:12:17;11.00;99.90
21149;DHT22;10732;51.472;6.466;2023-04-01T16:20:51;10.80;99.90
21149;DHT22;10732;51.472;6.466;2023-04-01T16:31:35;10.80;99.90
21149;DHT22;10732;51.472;6.466;2023-04-01T16:34:27;10.80;99.90
21149;DHT22;10732;51.472;6.466;2023-04-01T16:37:03;10.70;99.90
21149;DHT22;10732;51.472;6.466;2023-04-01T16:39:52;10.70;99.90
21149;DHT22;10732;51.472;6.466;2023-04-01T16:44:50;10.60;99.90
21149;DHT22;10732;51.472;6.466;2023-04-01T16:47:29;10.60;99.90
21149;DHT22;10732;51.472;6.466;2023-04-01T16:50:00;10.60;99.90
21149;DHT22;10732;51.472;6.466;2023-04-01T16:55:16;10.60;99.90
21149;DHT22;10732;51.472;6.466;2023-04-01T16:57:56;10.60;99.90
21149;DHT22;10732;51.472;6.466;2023-04-01T17:00:26;10.60;99.90
21149;DHT22;10732;51.472;6.466;2023-04-01T17:11:26;10.60;99.90
21149;DHT22;10732;51.472;6.466;2023-04-01T17:14:10;10.60;99.90
21149;DHT22;10732;51.472;6.466;2023-04-01T17:17:01;10.60;99.90
21149;DHT22;10732;51.472;6.466;2023-04-01T17:19:34;10.50;99.90
21149;DHT22;10732;51.472;6.466;2023-04-01T17:22:27;10.40;99.90
21149;DHT22;10732;51.472;6.466;2023-04-01T17:30:47;10.40;99.90
21149;DHT22;10732;51.472;6.466;2023-04-01T17:39:22;10.30;99.90
21149;DHT22;10732;51.472;6.466;2023-04-01T17:42:21;10.40;99.90
21149;DHT22;10732;51.472;6.466;2023-04-01T17:47:36;10.30;99.90
21149;DHT22;10732;51.472;6.466;2023-04-01T17:53:01;10.20;99.90
21149;DHT22;10732;51.472;6.466;2023-04-01T17:55:37;10.20;99.90
21149;DHT22;10732;51.472;6.466;2023-04-01T17:58:22;10.20;99.90
21149;DHT22;10732;51.472;6.466;2023-04-01T18:07:12;10.10;99.90
21149;DHT22;10732;51.472;6.466;2023-04-01T18:10:13;10.10;99.90
21149;DHT22;10732;51.472;6.466;2023-04-01T18:16:23;10.10;99.90
21149;DHT22;10732;51.472;6.466;2023-04-01T18:18:46;10.10;99.90
21149;DHT22;10732;51.472;6.466;2023-04-01T18:21:43;10.10;99.90
21149;DHT22;10732;51.472;6.466;2023-04-01T18:27:03;10.10;99.90
21149;DHT22;10732;51.472;6.466;2023-04-01T18:29:44;10.00;99.90
21149;DHT22;10732;51.472;6.466;2023-04-01T18:32:26;10.10;99.90
21149;DHT22;10732;51.472;6.466;2023-04-01T18:35:12;10.10;99.90
21149;DHT22;10732;51.472;6.466;2023-04-01T18:41:19;10.10;99.90
21149;DHT22;10732;51.472;6.466;2023-04-01T18:43:46;10.10;99.90
21149;DHT22;10732;51.472;6.466;2023-04-01T18:46:49;10.10;99.90
21149;DHT22;10732;51.472;6.466;2023-04-01T18:49:29;10.10;99.90
21149;DHT22;10732;51.472;6.466;2023-04-01T18:52:08;10.10;99.90
21149;DHT22;10732;51.472;6.466;2023-04-01T18:55:24;10.10;99.90
21149;DHT22;10732;51.472;6.466;2023-04-01T18:57:59;10.10;99.90
21149;DHT22;10732;51.472;6.466;2023-04-01T19:03:32;10.10;99.90
21149;DHT22;10732;51.472;6.466;2023-04-01T19:06:07;10.00;99.90
21149;DHT22;10732;51.472;6.466;2023-04-01T19:08:40;10.10;99.90
21149;DHT22;10732;51.472;6.466;2023-04-01T19:14:27;10.00;99.90
21149;DHT22;10732;51.472;6.466;2023-04-01T19:18:02;10.00;99.90
21149;DHT22;10732;51.472;6.466;2023-04-01T19:23:31;9.90;99.90
21149;DHT22;10732;51.472;6.466;2023-04-01T19:26:03;9.90;99.90
21149;DHT22;10732;51.472;6.466;2023-04-01T19:28:46;9.90;99.90
21149;DHT22;10732;51.472;6.466;2023-04-01T19:34:20;9.80;99.90
21149;DHT22;10732;51.472;6.466;2023-04-01T19:39:54;9.80;99.90
21149;DHT22;10732;51.472;6.466;2023-04-01T19:50:55;9.60;99.90
21149;DHT22;10732;51.472;6.466;2023-04-01T19:56:18;9.50;99.90
21149;DHT22;10732;51.472;6.466;2023-04-01T19:59:04;9.50;99.90
21149;DHT22;10732;51.472;6.466;2023-04-01T20:04:14;9.50;99.90
21149;DHT22;10732;51.472;6.466;2023-04-01T20:07:06;9.40;99.90
21149;DHT22;10732;51.472;6.466;2023-04-01T20:15:37;9.20;99.90
21149;DHT22;10732;51.472;6.466;2023-04-01T20:18:45;9.20;99.90
21149;DHT22;10732;51.472;6.466;2023-04-01T20:21:41;9.20;99.90
21149;DHT22;10732;51.472;6.466;2023-04-01T20:26:35;9.20;99.90
21149;DHT22;10732;51.472;6.466;2023-04-01T20:29:16;9.20;99.90
21149;DHT22;10732;51.472;6.466;2023-04-01T20:40:19;9.10;99.90
21149;DHT22;10732;51.472;6.466;2023-04-01T20:51:03;8.90;99.90
21149;DHT22;10732;51.472;6.466;2023-04-01T20:53:36;8.90;99.90
21149;DHT22;10732;51.472;6.466;2023-04-01T21:01:44;8.90;99.90
21149;DHT22;10732;51.472;6.466;2023-04-01T21:32:20;8.60;99.90
21149;DHT22;10732;51.472;6.466;2023-04-01T21:37:58;8.40;99.90
21149;DHT22;10732;51.472;6.466;2023-04-01T21:46:09;8.40;99.90
21149;DHT22;10732;51.472;6.466;2023-04-01T21:51:44;8.30;99.90
21149;DHT22;10732;51.472;6.466;2023-04-01T22:05:26;8.10;99.90
21149;DHT22;10732;51.472;6.466;2023-04-01T22:13:10;7.90;99.90
21149;DHT22;10732;51.472;6.466;2023-04-01T22:23:55;7.80;99.90
21149;DHT22;10732;51.472;6.466;2023-04-01T22:31:41;7.80;99.90
21149;DHT22;10732;51.472;6.466;2023-04-01T22:34:16;7.80;99.90
21149;DHT22;10732;51.472;6.466;2023-04-01T22:45:17;7.60;99.90
21149;DHT22;10732;51.472;6.466;2023-04-01T22:48:12;7.60;99.90
21149;DHT22;10732;51.472;6.466;2023-04-01T22:56:15;7.60;99.90
21149;DHT22;10732;51.472;6.466;2023-04-01T22:58:59;7.50;99.90
21149;DHT22;10732;51.472;6.466;2023-04-01T23:01:32;7.50;99.90
21149;DHT22;10732;51.472;6.466;2023-04-01T23:04:03;7.50;99.90
21149;DHT22;10732;51.472;6.466;2023-04-01T23:06:38;7.50;99.90
21149;DHT22;10732;51.472;6.466;2023-04-01T23:09:11;7.50;99.90
21149;DHT22;10732;51.472;6.466;2023-04-01T23:12:01;7.50;99.90
21149;DHT22;10732;51.472;6.466;2023-04-01T23:14:33;7.40;99.90
21149;DHT22;10732;51.472;6.466;2023-04-01T23:17:16;7.40;99.90
21149;DHT22;10732;51.472;6.466;2023-04-01T23:27:51;7.20;99.90
21149;DHT22;10732;51.472;6.466;2023-04-01T23:36:02;7.20;99.90
21149;DHT22;10732;51.472;6.466;2023-04-01T23:38:40;7.20;99.90
21149;DHT22;10732;51.472;6.466;2023-04-01T23:41:30;7.20;99.90
21149;DHT22;10732;51.472;6.466;2023-04-01T23:44:07;7.20;99.90
21149;DHT22;10732;51.472;6.466;2023-04-01T23:46:35;7.20;99.90
21149;DHT22;10732;51.472;6.466;2023-04-01T23:49:02;7.10;99.90
21149;DHT22;10732;51.472;6.466;2023-04-01T23:51:36;7.10;99.90
21149;DHT22;10732;51.472;6.466;2023-04-01T23:56:51;7.00;99.90
21149;DHT22;10732;51.472;6.466;2023-04-01T23:59:22;7.00;99.90
